Time;durP1;ratioP1;P1;durP2;ratioP2;P2;SDS_P1;SDS_P2;PMS_P1;PMS_P2;Temp;Humidity;BMP_temperature;BMP_pressure;BME280_temperature;BME280_humidity;BME280_pressure;Samples;Min_cycle;Max_cycle;Signal;HPM_P1;HPM_P2
2021/03/02 00:01:26;;;;;;;56.18;23.12;;;;;;;0.36;100.00;100956.91;4326022;81;44093;-75
2021/03/02 00:07:31;;;;;;;59.05;23.98;;;;;;;0.25;100.00;100956.39;4328378;81;44138;-76
2021/03/02 00:13:33;;;;;;;56.42;24.65;;;;;;;0.09;100.00;100955.87;4332382;81;44081;-76
2021/03/02 00:19:49;;;;;;;56.02;23.55;;;;;;;-0.05;100.00;100953.80;4315150;81;44085;-79
2021/03/02 00:25:55;;;;;;;54.70;23.05;;;;;;;-0.37;100.00;100961.45;4326465;81;28552;-76
2021/03/02 00:31:58;;;;;;;58.05;24.98;;;;;;;-0.34;100.00;100952.83;4333918;81;44149;-76
2021/03/02 00:38:01;;;;;;;60.33;25.20;;;;;;;-0.39;100.00;100950.16;4326370;81;44223;-76
2021/03/02 00:44:03;;;;;;;67.27;27.77;;;;;;;-0.46;100.00;100943.98;4310569;81;44085;-75
2021/03/02 00:50:08;;;;;;;68.72;27.58;;;;;;;-0.41;100.00;100937.54;4333891;80;44077;-76
2021/03/02 00:56:10;;;;;;;68.12;29.52;;;;;;;-0.33;100.00;100932.05;4316442;81;44082;-76
2021/03/02 01:02:12;;;;;;;71.22;29.77;;;;;;;-0.29;100.00;100939.27;4308583;81;44099;-75
2021/03/02 01:08:15;;;;;;;65.57;27.82;;;;;;;-0.32;100.00;100936.84;4319657;81;43389;-77
2021/03/02 01:14:18;;;;;;;68.17;28.00;;;;;;;-0.23;100.00;100936.16;4282578;81;43791;-76
2021/03/02 01:20:20;;;;;;;69.32;27.93;;;;;;;-0.25;100.00;100928.83;4260428;81;44103;-76
2021/03/02 01:26:22;;;;;;;62.62;27.70;;;;;;;-0.26;100.00;100916.56;4262165;82;43412;-76
2021/03/02 01:32:24;;;;;;;75.70;29.02;;;;;;;-0.21;100.00;100906.97;4285035;81;44181;-75
2021/03/02 01:38:26;;;;;;;70.35;27.58;;;;;;;-0.29;100.00;100903.09;4269842;82;44106;-75
2021/03/02 01:44:29;;;;;;;64.42;27.70;;;;;;;-0.33;100.00;100895.50;4287765;82;43396;-74
2021/03/02 01:50:31;;;;;;;61.63;27.60;;;;;;;-0.32;100.00;100897.19;4293246;81;43416;-74
2021/03/02 01:56:33;;;;;;;72.32;29.27;;;;;;;-0.38;100.00;100885.77;4263773;81;44084;-75
2021/03/02 02:03:08;;;;;;;65.55;27.25;;;;;;;-0.46;100.00;100883.20;4274533;82;43390;-75
2021/03/02 02:09:24;;;;;;;74.00;30.80;;;;;;;-0.50;100.00;100881.76;4267899;81;28554;-77
2021/03/02 02:15:29;;;;;;;73.87;30.15;;;;;;;-0.41;100.00;100865.69;4298683;81;44087;-77
2021/03/02 02:21:42;;;;;;;67.70;28.75;;;;;;;-0.47;100.00;100852.91;4274979;81;44081;-77
2021/03/02 02:27:48;;;;;;;61.77;26.82;;;;;;;-0.58;100.00;100857.20;4269849;83;43404;-76
2021/03/02 02:33:51;;;;;;;75.72;30.35;;;;;;;-0.58;100.00;100849.27;4272487;81;28554;-76
2021/03/02 02:39:58;;;;;;;58.17;25.65;;;;;;;-0.53;100.00;100850.25;4277230;83;42174;-75
2021/03/02 02:46:00;;;;;;;72.82;29.30;;;;;;;-0.54;100.00;100851.21;4293689;82;44157;-75
2021/03/02 02:52:03;;;;;;;71.17;29.75;;;;;;;-0.61;100.00;100853.47;4277221;83;44097;-74
2021/03/02 02:58:09;;;;;;;69.15;30.15;;;;;;;-0.59;100.00;100847.59;4282140;81;44121;-75
2021/03/02 03:04:13;;;;;;;;;;;;;;;-0.57;100.00;100834.27;4287136;81;28578;-76
2021/03/02 03:10:15;;;;;;;71.02;30.48;;;;;;;-0.67;100.00;100841.20;4261353;82;44121;-76
2021/03/02 03:16:22;;;;;;;71.47;29.80;;;;;;;-0.71;100.00;100841.89;4295702;81;44110;-76
2021/03/02 03:22:27;;;;;;;79.75;31.90;;;;;;;-0.70;100.00;100838.30;4287708;81;42903;-75
2021/03/02 03:28:29;;;;;;;87.65;35.45;;;;;;;-0.62;100.00;100843.03;4261843;82;44425;-74
2021/03/02 03:34:32;;;;;;;130.00;44.33;;;;;;;-0.88;100.00;100859.84;4266111;82;44092;-75
2021/03/02 03:40:35;;;;;;;108.78;42.67;;;;;;;-1.20;100.00;100859.02;4240903;84;44300;-75
2021/03/02 03:46:37;;;;;;;108.50;42.05;;;;;;;-1.02;100.00;100856.02;4241379;83;44257;-74
2021/03/02 03:52:44;;;;;;;119.80;46.75;;;;;;;-0.89;100.00;100851.52;4288909;81;43905;-75
2021/03/02 03:58:47;;;;;;;117.28;44.35;;;;;;;-0.60;100.00;100855.65;4257072;83;43835;-76
2021/03/02 04:04:50;;;;;;;120.85;44.05;;;;;;;-0.38;100.00;100856.69;4261055;81;43917;-78
2021/03/02 04:10:52;;;;;;;115.08;43.17;;;;;;;-0.23;100.00;100854.70;4273631;81;44622;-78
2021/03/02 04:16:54;;;;;;;113.62;43.35;;;;;;;0.00;100.00;100854.28;4294087;82;44650;-78
2021/03/02 04:22:56;;;;;;;123.07;44.20;;;;;;;0.20;100.00;100846.59;4283517;82;43937;-77
2021/03/02 04:28:58;;;;;;;118.35;43.00;;;;;;;0.24;100.00;100842.27;4268222;83;44623;-77
2021/03/02 04:35:01;;;;;;;109.92;40.10;;;;;;;0.32;100.00;100835.08;4310546;81;44259;-77
2021/03/02 04:41:03;;;;;;;116.60;41.53;;;;;;;0.36;100.00;100829.89;4286637;81;44622;-76
2021/03/02 04:47:05;;;;;;;124.33;43.68;;;;;;;0.42;100.00;100832.53;4292184;82;43944;-77
2021/03/02 04:53:07;;;;;;;121.92;42.25;;;;;;;0.52;100.00;100832.17;4200890;84;43957;-76
2021/03/02 04:59:09;;;;;;;116.75;42.35;;;;;;;0.49;100.00;100837.72;4271279;82;44612;-77
2021/03/02 05:05:13;;;;;;;108.87;40.12;;;;;;;0.53;100.00;100839.15;4264827;82;44452;-76
2021/03/02 05:11:15;;;;;;;102.70;38.73;;;;;;;0.59;100.00;100840.97;4247504;83;43113;-76
2021/03/02 05:17:17;;;;;;;104.53;38.10;;;;;;;0.75;100.00;100845.88;4274370;82;43905;-76
2021/03/02 05:23:19;;;;;;;101.58;36.38;;;;;;;0.72;100.00;100849.61;4168906;85;43569;-76
2021/03/02 05:29:21;;;;;;;92.85;33.73;;;;;;;0.74;100.00;100841.55;4170021;84;44101;-76
2021/03/02 05:35:23;;;;;;;101.12;37.35;;;;;;;0.64;100.00;100832.16;4193486;83;43911;-76
2021/03/02 05:41:26;;;;;;;86.57;33.28;;;;;;;0.61;100.00;100839.86;4249841;83;44084;-77
2021/03/02 05:47:29;;;;;;;97.15;35.80;;;;;;;0.53;100.00;100844.44;4243142;82;44442;-76
2021/03/02 05:53:32;;;;;;;85.72;33.20;;;;;;;0.30;100.00;100856.00;4234610;82;43141;-75
2021/03/02 05:59:34;;;;;;;101.55;37.00;;;;;;;0.27;100.00;100843.84;4226674;84;43476;-75
2021/03/02 06:05:37;;;;;;;107.30;36.77;;;;;;;0.30;100.00;100840.13;4195243;84;43906;-75
2021/03/02 06:11:39;;;;;;;104.92;37.65;;;;;;;0.39;100.00;100834.94;4197500;84;43564;-74
2021/03/02 06:17:41;;;;;;;107.43;36.93;;;;;;;0.48;100.00;100840.47;4296522;81;43577;-74
2021/03/02 06:23:53;;;;;;;105.37;37.65;;;;;;;0.50;100.00;100843.37;4276507;81;43586;-74
2021/03/02 06:30:14;;;;;;;94.32;34.92;;;;;;;0.58;100.00;100836.64;4282974;81;44441;-74
2021/03/02 06:36:19;;;;;;;102.25;35.90;;;;;;;0.65;100.00;100850.58;4278306;82;43239;-76
2021/03/02 06:42:22;;;;;;;96.43;35.93;;;;;;;0.71;100.00;100854.55;4261726;81;28575;-78
2021/03/02 06:48:25;;;;;;;93.37;34.60;;;;;;;0.87;100.00;100854.16;4274624;82;44094;-78
2021/03/02 06:54:30;;;;;;;85.42;33.58;;;;;;;0.80;100.00;100847.67;4274020;81;43061;-77
2021/03/02 07:00:33;;;;;;;101.33;37.95;;;;;;;0.91;100.00;100848.14;4275438;82;28575;-78
2021/03/02 07:06:37;;;;;;;92.82;35.60;;;;;;;0.99;100.00;100843.08;4279143;82;44429;-77
2021/03/02 07:12:41;;;;;;;87.95;33.28;;;;;;;1.15;100.00;100844.00;4286178;82;44134;-79
2021/03/02 07:18:45;;;;;;;79.20;32.13;;;;;;;1.30;100.00;100835.28;4248967;83;28547;-79
2021/03/02 07:24:48;;;;;;;97.02;33.42;;;;;;;1.36;100.00;100831.28;4222383;84;44087;-78
2021/03/02 07:30:52;;;;;;;83.85;34.03;;;;;;;1.61;100.00;100839.34;4292145;82;43104;-78
2021/03/02 07:36:55;;;;;;;83.07;34.83;;;;;;;1.72;100.00;100849.06;4258926;82;28587;-78
2021/03/02 07:43:03;;;;;;;81.85;33.00;;;;;;;1.94;100.00;100840.62;4256816;82;28587;-78
2021/03/02 07:49:31;;;;;;;80.42;31.48;;;;;;;1.98;100.00;100845.19;4233550;82;43057;-78
2021/03/02 07:55:33;;;;;;;94.83;36.20;;;;;;;2.16;100.00;100848.07;4250116;82;44462;-79
2021/03/02 08:01:35;;;;;;;85.38;35.80;;;;;;;2.04;100.00;100844.67;4258466;83;28596;-78
2021/03/02 08:07:38;;;;;;;84.85;33.23;;;;;;;2.32;100.00;100850.25;4252972;82;43038;-78
2021/03/02 08:13:42;;;;;;;91.25;35.68;;;;;;;2.24;100.00;100844.28;4258506;82;44280;-77
2021/03/02 08:19:49;;;;;;;86.13;34.63;;;;;;;2.10;100.00;100848.11;4262405;82;34559;-80
2021/03/02 08:25:52;;;;;;;88.33;35.15;;;;;;;2.17;100.00;100843.97;4237710;82;44458;-78
2021/03/02 08:31:54;;;;;;;72.30;30.45;;;;;;;2.17;100.00;100843.97;4196828;84;28567;-78
2021/03/02 08:38:09;;;;;;;74.12;31.62;;;;;;;2.00;100.00;100848.54;4244227;84;44123;-79
2021/03/02 08:44:26;;;;;;;79.07;31.90;;;;;;;2.20;100.00;100846.86;4225691;84;28584;-78
2021/03/02 08:50:35;;;;;;;80.85;33.30;;;;;;;2.41;100.00;100840.67;4145867;84;28558;-80
2021/03/02 08:56:37;;;;;;;73.80;31.00;;;;;;;2.51;100.00;100837.56;4237267;82;28577;-78
2021/03/02 09:02:46;;;;;;;78.60;31.75;;;;;;;2.67;100.00;100848.16;4231491;82;28581;-78
2021/03/02 09:09:01;;;;;;;75.57;30.40;;;;;;;2.73;100.00;100853.77;4279829;81;28569;-79
2021/03/02 09:15:05;;;;;;;79.17;31.30;;;;;;;2.78;100.00;100844.06;4218905;82;28626;-80
2021/03/02 09:21:09;;;;;;;81.57;32.10;;;;;;;2.92;100.00;100846.83;4242191;83;28643;-80
2021/03/02 09:27:17;;;;;;;73.75;28.10;;;;;;;3.08;100.00;100841.50;4207583;83;28559;-80
2021/03/02 09:33:22;;;;;;;70.50;28.15;;;;;;;3.20;100.00;100831.91;4228357;83;28932;-81
2021/03/02 09:39:26;;;;;;;65.72;27.65;;;;;;;3.38;100.00;100833.03;4277807;82;28559;-80
2021/03/02 09:45:28;;;;;;;71.80;29.42;;;;;;;3.62;100.00;100848.57;4262728;83;28593;-81
2021/03/02 09:51:33;;;;;;;72.53;30.00;;;;;;;3.93;100.00;100858.22;4255855;82;28544;-80
2021/03/02 09:57:55;;;;;;;60.60;24.30;;;;;;;4.16;100.00;100859.56;4254309;81;28550;-80
2021/03/02 10:04:06;;;;;;;57.20;25.27;;;;;;;4.40;100.00;100858.22;4169626;84;28562;-80
2021/03/02 10:10:09;;;;;;;50.10;22.00;;;;;;;4.78;100.00;100860.86;4236163;83;28590;-82
2021/03/02 10:16:30;;;;;;;49.80;20.70;;;;;;;5.05;100.00;100847.66;4261549;83;28577;-81
2021/03/02 10:22:33;;;;;;;48.58;20.62;;;;;;;5.34;100.00;100837.30;4284302;81;28573;-83
2021/03/02 10:28:36;;;;;;;48.58;20.75;;;;;;;5.60;100.00;100832.02;4279943;81;28621;-82
2021/03/02 10:34:41;;;;;;;45.88;19.45;;;;;;;5.86;100.00;100837.39;4262025;83;28629;-82
2021/03/02 10:40:43;;;;;;;43.45;19.17;;;;;;;6.21;100.00;100824.65;4290178;83;28547;-84
2021/03/02 10:46:47;;;;;;;46.65;20.25;;;;;;;6.51;100.00;100825.95;4283673;81;28585;-83
2021/03/02 10:52:49;;;;;;;36.95;16.23;;;;;;;6.80;100.00;100799.83;4275979;82;28616;-82
2021/03/02 10:58:51;;;;;;;34.53;15.23;;;;;;;7.08;100.00;100788.86;4190824;84;28585;-81
2021/03/02 11:04:53;;;;;;;40.23;16.97;;;;;;;7.39;100.00;100772.16;4245455;83;28962;-77
2021/03/02 11:10:56;;;;;;;41.42;18.50;;;;;;;7.64;100.00;100765.45;4281454;82;28558;-79
2021/03/02 11:16:58;;;;;;;37.03;16.50;;;;;;;7.83;100.00;100777.66;4275529;83;28547;-83
2021/03/02 11:23:01;;;;;;;42.53;18.48;;;;;;;7.94;100.00;100776.45;4279734;83;28552;-84
2021/03/02 11:29:04;;;;;;;43.05;16.52;;;;;;;8.08;100.00;100781.61;4263992;82;28565;-85
2021/03/02 11:35:08;;;;;;;39.98;18.57;;;;;;;8.25;100.00;100773.02;4292215;82;28582;-82
2021/03/02 11:41:10;;;;;;;38.78;16.20;;;;;;;8.48;100.00;100758.84;4291408;82;28574;-82
2021/03/02 11:47:12;;;;;;;39.50;17.52;;;;;;;8.61;100.00;100751.12;4290608;81;28675;-82
2021/03/02 11:53:15;;;;;;;28.62;13.32;;;;;;;8.79;100.00;100746.81;4270546;82;28615;-83
2021/03/02 11:59:17;;;;;;;31.00;13.60;;;;;;;9.02;100.00;100739.81;4283540;82;28596;-82
2021/03/02 12:05:21;;;;;;;29.98;13.70;;;;;;;9.20;100.00;100739.50;4275361;82;28627;-82
2021/03/02 12:11:23;;;;;;;31.42;12.82;;;;;;;9.28;100.00;100738.59;4290982;82;28620;-83
2021/03/02 12:17:25;;;;;;;27.45;13.38;;;;;;;9.35;100.00;100734.98;4280272;82;28616;-83
2021/03/02 12:23:28;;;;;;;30.52;14.18;;;;;;;9.46;100.00;100734.23;4274843;82;28594;-83
2021/03/02 12:29:30;;;;;;;30.77;14.28;;;;;;;9.54;100.00;100732.00;4285389;82;28596;-82
2021/03/02 12:35:32;;;;;;;34.50;14.83;;;;;;;9.77;96.25;100733.25;4285040;81;28542;-82
2021/03/02 12:41:36;;;;;;;30.57;14.38;;;;;;;9.73;95.73;100727.94;4288032;81;28570;-82
2021/03/02 12:47:38;;;;;;;28.75;13.90;;;;;;;9.75;95.98;100715.15;4269399;82;28624;-81
2021/03/02 12:53:41;;;;;;;31.12;13.98;;;;;;;9.94;98.30;100703.01;4292099;81;28584;-83
2021/03/02 12:59:43;;;;;;;28.42;12.78;;;;;;;10.05;95.90;100705.75;4276860;81;28621;-83
2021/03/02 13:05:46;;;;;;;29.05;13.83;;;;;;;10.04;92.04;100701.40;4236390;82;28607;-83
2021/03/02 13:11:50;;;;;;;29.70;13.53;;;;;;;10.08;90.43;100712.09;4282840;82;28597;-81
2021/03/02 13:17:52;;;;;;;28.47;13.35;;;;;;;10.06;92.81;100703.38;4281446;82;28637;-88
2021/03/02 13:23:57;;;;;;;29.18;12.45;;;;;;;10.28;95.96;100698.07;4268697;81;28598;-85
2021/03/02 13:30:02;;;;;;;29.25;13.78;;;;;;;10.35;90.22;100708.90;4282098;82;28643;-85
2021/03/02 13:36:05;;;;;;;29.55;12.93;;;;;;;10.41;87.27;100692.02;4273944;82;28546;-87
2021/03/02 13:42:08;;;;;;;26.77;12.93;;;;;;;10.45;89.47;100685.27;4277194;82;28573;-89
2021/03/02 13:48:11;;;;;;;25.55;12.47;;;;;;;10.52;91.29;100684.84;4286749;81;28580;-88
2021/03/02 13:54:16;;;;;;;28.20;13.15;;;;;;;10.57;85.78;100668.13;4263619;82;28592;-90
2021/03/02 14:00:21;;;;;;;26.48;12.33;;;;;;;10.65;86.88;100657.25;4286194;82;28614;-83
2021/03/02 14:06:25;;;;;;;25.50;12.53;;;;;;;10.60;87.73;100660.52;4289590;82;28581;-82
2021/03/02 14:12:28;;;;;;;26.00;12.00;;;;;;;10.59;87.24;100650.78;4283189;81;28672;-81
2021/03/02 14:18:30;;;;;;;26.05;12.07;;;;;;;10.66;85.61;100656.73;4278430;81;28583;-81
2021/03/02 14:24:32;;;;;;;27.67;12.73;;;;;;;10.71;86.48;100651.62;4282227;81;28582;-81
2021/03/02 14:30:34;;;;;;;27.07;12.65;;;;;;;10.68;92.98;100647.98;4273341;81;28584;-80
2021/03/02 14:36:38;;;;;;;29.35;12.65;;;;;;;10.57;92.55;100651.50;4270800;82;28554;-81
2021/03/02 14:42:51;;;;;;;29.25;13.50;;;;;;;10.63;92.84;100644.52;4239339;82;28616;-83
2021/03/02 14:49:17;;;;;;;29.30;13.50;;;;;;;10.57;90.97;100640.73;4271445;82;28676;-83
2021/03/02 14:55:21;;;;;;;31.45;13.20;;;;;;;10.56;92.26;100630.98;4272520;82;28674;-82
2021/03/02 15:01:24;;;;;;;24.57;12.07;;;;;;;10.49;93.83;100628.75;4280860;82;28594;-83
2021/03/02 15:07:28;;;;;;;29.52;12.47;;;;;;;10.42;92.84;100632.72;4267145;81;28604;-84
2021/03/02 15:13:36;;;;;;;31.02;13.40;;;;;;;10.46;89.41;100627.77;4273863;81;28577;-84
2021/03/02 15:19:38;;;;;;;29.12;13.53;;;;;;;10.43;90.66;100621.44;4277988;82;28577;-85
2021/03/02 15:25:44;;;;;;;28.02;13.18;;;;;;;10.36;90.53;100611.93;4269030;82;28594;-82
2021/03/02 15:31:47;;;;;;;;;;;;;;;10.32;87.12;100612.82;4289210;82;28665;-83
2021/03/02 15:37:50;;;;;;;29.85;13.48;;;;;;;10.24;85.13;100613.46;4275565;81;20276;-83
2021/03/02 15:43:52;;;;;;;28.50;13.20;;;;;;;10.10;90.56;100605.76;4276513;81;28613;-81
2021/03/02 15:49:57;;;;;;;31.97;13.43;;;;;;;10.00;92.62;100606.89;4273739;81;28664;-80
2021/03/02 15:56:00;;;;;;;30.17;14.25;;;;;;;9.86;93.07;100605.89;4276299;81;28601;-81
2021/03/02 16:02:15;;;;;;;34.00;13.68;;;;;;;9.70;94.54;100604.24;4275621;81;28578;-83
2021/03/02 16:08:19;;;;;;;32.17;13.85;;;;;;;9.46;96.01;100603.52;4279272;81;28615;-83
2021/03/02 16:14:24;;;;;;;32.25;14.50;;;;;;;9.26;97.64;100598.38;4281094;82;28612;-83
2021/03/02 16:20:30;;;;;;;34.70;15.55;;;;;;;9.12;99.60;100604.05;4280974;82;28558;-81
2021/03/02 16:26:35;;;;;;;31.73;14.63;;;;;;;8.87;100.00;100597.58;4324160;81;28549;-82
2021/03/02 16:32:37;;;;;;;29.20;13.70;;;;;;;8.70;100.00;100604.94;4322936;81;28615;-81
2021/03/02 16:38:42;;;;;;;28.05;14.15;;;;;;;8.45;100.00;100606.41;4320676;81;28605;-84
2021/03/02 16:44:45;;;;;;;30.60;13.00;;;;;;;8.19;100.00;100615.12;4311689;81;28557;-82
2021/03/02 16:50:47;;;;;;;31.30;13.98;;;;;;;7.92;100.00;100614.61;4325932;81;28578;-83
2021/03/02 16:56:52;;;;;;;28.60;13.18;;;;;;;7.87;100.00;100620.16;4329480;81;28613;-81
2021/03/02 17:03:07;;;;;;;31.75;13.22;;;;;;;7.64;100.00;100633.78;4336236;81;28578;-81
2021/03/02 17:09:12;;;;;;;31.17;12.88;;;;;;;7.52;100.00;100640.52;4317207;81;28638;-81
2021/03/02 17:15:16;;;;;;;28.60;11.90;;;;;;;7.36;100.00;100641.39;4331867;81;28604;-83
2021/03/02 17:21:18;;;;;;;27.07;11.97;;;;;;;7.24;100.00;100646.25;4314931;81;28628;-80
2021/03/02 17:27:20;;;;;;;29.30;12.88;;;;;;;7.22;100.00;100643.73;4326651;81;28561;-83
2021/03/02 17:33:30;;;;;;;33.28;14.25;;;;;;;7.24;100.00;100643.58;4318439;81;28642;-82
2021/03/02 17:39:33;;;;;;;33.67;14.87;;;;;;;7.20;100.00;100645.75;4324653;81;28554;-82
2021/03/02 17:45:35;;;;;;;31.73;14.83;;;;;;;7.03;100.00;100645.42;4323901;81;28594;-83
2021/03/02 17:51:37;;;;;;;35.65;15.90;;;;;;;6.88;100.00;100654.13;4318853;82;28545;-82
2021/03/02 17:57:40;;;;;;;35.20;14.85;;;;;;;6.76;100.00;100647.45;4332374;81;28608;-83
2021/03/02 18:03:41;;;;;;;36.38;16.65;;;;;;;6.62;100.00;100648.94;4321492;81;28550;-83
2021/03/02 18:09:47;;;;;;;40.17;16.97;;;;;;;6.37;100.00;100651.06;4313210;81;28553;-84
2021/03/02 18:15:49;;;;;;;40.92;17.80;;;;;;;6.21;100.00;100649.70;4313025;81;28625;-82
2021/03/02 18:21:53;;;;;;;41.60;17.27;;;;;;;6.13;100.00;100651.83;4312730;81;28650;-83
2021/03/02 18:27:55;;;;;;;47.00;18.23;;;;;;;5.94;100.00;100648.90;4331290;81;28589;-81
2021/03/02 18:33:57;;;;;;;42.88;18.57;;;;;;;5.78;100.00;100642.99;4345068;80;28551;-82
2021/03/02 18:40:00;;;;;;;45.85;18.92;;;;;;;5.80;100.00;100645.00;4295605;81;28598;-81
2021/03/02 18:46:02;;;;;;;53.63;22.73;;;;;;;5.84;100.00;100641.03;4328352;81;28616;-85
2021/03/02 18:52:05;;;;;;;58.80;26.23;;;;;;;5.85;100.00;100638.70;4341729;80;28607;-86
2021/03/02 18:58:07;;;;;;;64.75;27.40;;;;;;;5.75;100.00;100638.80;4326548;81;28572;-84
2021/03/02 19:04:10;;;;;;;68.35;30.55;;;;;;;5.60;100.00;100645.23;4333310;81;28581;-89
2021/03/02 19:10:12;;;;;;;69.67;30.15;;;;;;;5.43;100.00;100641.64;4349850;81;28599;-84
2021/03/02 19:16:15;;;;;;;71.15;29.63;;;;;;;5.29;100.00;100650.58;4323746;81;28590;-83
2021/03/02 19:22:17;;;;;;;75.17;30.55;;;;;;;5.20;100.00;100656.84;4310705;81;28611;-85
2021/03/02 19:28:19;;;;;;;68.67;29.92;;;;;;;5.20;100.00;100653.33;4313807;81;28597;-85
2021/03/02 19:34:21;;;;;;;71.00;29.32;;;;;;;5.18;100.00;100646.83;4309927;80;28595;-87
2021/03/02 19:40:24;;;;;;;78.17;32.75;;;;;;;5.24;100.00;100646.19;4325886;80;28679;-83
2021/03/02 19:46:26;;;;;;;80.55;35.65;;;;;;;5.32;100.00;100653.43;4258133;82;28629;-83
2021/03/02 19:52:29;;;;;;;96.05;37.80;;;;;;;5.23;100.00;100655.19;4252669;82;28549;-83
2021/03/02 19:58:31;;;;;;;85.38;37.98;;;;;;;5.08;100.00;100661.58;4191438;83;28551;-79
2021/03/02 20:04:34;;;;;;;95.12;39.53;;;;;;;4.89;100.00;100657.27;4201666;84;28573;-85
2021/03/02 20:10:37;;;;;;;92.08;36.93;;;;;;;4.65;100.00;100656.55;4232218;84;28559;-84
2021/03/02 20:16:40;;;;;;;86.32;37.40;;;;;;;4.56;100.00;100652.47;4211752;82;28587;-82
2021/03/02 20:22:43;;;;;;;87.45;35.50;;;;;;;4.52;100.00;100657.77;4282783;82;28586;-82
2021/03/02 20:28:46;;;;;;;83.90;34.92;;;;;;;4.60;100.00;100665.00;4276278;81;28627;-82
2021/03/02 20:34:48;;;;;;;88.27;39.27;;;;;;;4.70;100.00;100663.09;4157652;83;28590;-83
2021/03/02 20:40:50;;;;;;;99.45;40.63;;;;;;;4.75;100.00;100670.63;4319559;81;28573;-84
2021/03/02 20:46:52;;;;;;;98.82;41.50;;;;;;;4.69;100.00;100660.09;4309106;81;28554;-82
2021/03/02 20:52:54;;;;;;;105.35;41.83;;;;;;;4.60;100.00;100667.66;4311965;80;28635;-80
2021/03/02 20:58:56;;;;;;;107.35;43.95;;;;;;;4.35;100.00;100664.77;4312077;82;28632;-81
2021/03/02 21:04:59;;;;;;;110.97;45.15;;;;;;;4.18;100.00;100673.06;4319005;81;28620;-82
2021/03/02 21:11:01;;;;;;;104.40;43.98;;;;;;;4.07;100.00;100670.61;4272083;82;28560;-82
2021/03/02 21:17:03;;;;;;;98.80;42.43;;;;;;;4.08;100.00;100673.10;4176113;84;28670;-82
2021/03/02 21:23:06;;;;;;;103.50;43.42;;;;;;;4.10;100.00;100676.45;4268717;82;28541;-81
2021/03/02 21:29:09;;;;;;;95.35;42.30;;;;;;;4.19;100.00;100681.39;4234711;82;28632;-82
2021/03/02 21:35:13;;;;;;;96.87;39.78;;;;;;;3.98;100.00;100685.63;4264890;81;28622;-80
2021/03/02 21:41:16;;;;;;;84.10;37.58;;;;;;;3.88;100.00;100684.34;4264806;81;28581;-80
2021/03/02 21:47:18;;;;;;;90.55;36.60;;;;;;;3.48;100.00;100697.77;4279826;81;28616;-82
2021/03/02 21:53:20;;;;;;;80.95;34.45;;;;;;;3.26;100.00;100696.77;4187622;84;28579;-81
2021/03/02 21:59:23;;;;;;;90.72;36.13;;;;;;;3.08;100.00;100698.80;4287659;82;28546;-80
2021/03/02 22:05:25;;;;;;;90.62;37.08;;;;;;;2.92;100.00;100696.72;4283135;81;28688;-82
2021/03/02 22:11:28;;;;;;;89.13;37.55;;;;;;;3.00;100.00;100692.02;4285210;81;28604;-80
2021/03/02 22:17:33;;;;;;;98.25;40.90;;;;;;;2.95;100.00;100692.95;4291621;81;28629;-81
2021/03/02 22:23:35;;;;;;;105.50;44.50;;;;;;;2.86;100.00;100683.50;4293322;81;28722;-81
2021/03/02 22:29:38;;;;;;;104.87;44.93;;;;;;;2.84;100.00;100680.16;4266583;81;28618;-79
2021/03/02 22:35:42;;;;;;;110.65;45.88;;;;;;;2.79;100.00;100675.73;4266542;81;28617;-81
2021/03/02 22:41:45;;;;;;;101.15;40.73;;;;;;;2.64;100.00;100676.63;4287584;81;28587;-81
2021/03/02 22:47:47;;;;;;;99.32;40.88;;;;;;;2.64;100.00;100662.88;4181825;84;28566;-80
2021/03/02 22:53:49;;;;;;;94.67;39.42;;;;;;;2.75;100.00;100665.87;4210849;82;28551;-80
2021/03/02 22:59:51;;;;;;;101.50;42.40;;;;;;;2.87;100.00;100668.41;4170129;84;28633;-80
2021/03/02 23:05:54;;;;;;;100.27;41.75;;;;;;;2.78;100.00;100664.28;4169516;84;28562;-81
2021/03/02 23:11:58;;;;;;;100.45;43.35;;;;;;;2.45;100.00;100667.70;4191164;84;28575;-80
2021/03/02 23:18:00;;;;;;;102.45;42.30;;;;;;;2.22;100.00;100664.43;4257164;82;28570;-79
2021/03/02 23:24:04;;;;;;;96.67;41.23;;;;;;;2.19;100.00;100678.80;4234687;82;28583;-78
2021/03/02 23:30:09;;;;;;;91.72;38.70;;;;;;;2.13;100.00;100665.24;4289496;81;28562;-82
2021/03/02 23:36:11;;;;;;;87.85;37.05;;;;;;;1.73;100.00;100662.95;4212822;82;28571;-82
2021/03/02 23:42:13;;;;;;;87.10;35.90;;;;;;;1.78;100.00;100665.56;4282776;82;28565;-79
2021/03/02 23:48:16;;;;;;;92.15;36.17;;;;;;;1.61;100.00;100667.50;4289336;81;28609;-79
2021/03/02 23:54:18;;;;;;;86.63;35.83;;;;;;;1.38;100.00;100663.69;4282469;81;44470;-79
